Tienen, Belgium
Current Conditions -  °F | °C
As of 2:25 AM on Friday 28 Nov 2014 (Local Time) from EBBE Reporting Station
Broken Clouds Broken Clouds  
Wind Chill: 44°   Ceiling: 23000
Heat Index: 46°   Visibility: 4mi
Dew Point: 45°   Wind: 6mph
Humidity: 93%   Direction: 90°E
Pressure: 29.68"   Gusts: NA
Location:  50.81°N, 4.94°E
Report Text: EBBE 280125Z AUTO 09005KT 6000 BKN230/// 08/07 Q1005 WHT
Loading
Personal Weather Stations






























Interactive Weather Map New forecast layout! Learn more

10-Day Weather Forecast

Advertisements
Track Severe Weather on mobile